Time;durP1;ratioP1;P1;durP2;ratioP2;P2;SDS_P1;SDS_P2;PMS_P1;PMS_P2;Temp;Humidity;BMP_temperature;BMP_pressure;BME280_temperature;BME280_humidity;BME280_pressure;Samples;Min_cycle;Max_cycle;Signal;HPM_P1;HPM_P2
2022/06/07 00:00:06;;;;;;;;;;;12.70;99.90;;;;;;5054239;28;19963;-73
2022/06/07 00:02:33;;;;;;;;;;;12.70;99.90;;;;;;5048889;28;20476;-73
2022/06/07 00:04:58;;;;;;;;;;;12.70;99.90;;;;;;5057199;28;19971;-72
2022/06/07 00:07:25;;;;;;;;;;;12.80;99.90;;;;;;5053663;28;20260;-74
2022/06/07 00:09:50;;;;;;;;;;;12.80;99.90;;;;;;5053629;28;19909;-73
2022/06/07 00:12:17;;;;;;;;;;;12.80;99.90;;;;;;5048038;28;19983;-74
2022/06/07 00:14:43;;;;;;;;;;;12.80;99.90;;;;;;5047494;28;19909;-73
2022/06/07 00:17:09;;;;;;;;;;;12.80;99.90;;;;;;5050812;28;19935;-73
2022/06/07 00:19:34;;;;;;;;;;;12.80;99.90;;;;;;5054781;28;19909;-72
2022/06/07 00:22:00;;;;;;;;;;;12.90;99.90;;;;;;5052176;28;20315;-72
2022/06/07 00:24:26;;;;;;;;;;;12.80;99.90;;;;;;5054646;28;19913;-73
2022/06/07 00:26:52;;;;;;;;;;;12.90;99.90;;;;;;5052101;28;19908;-72
2022/06/07 00:29:19;;;;;;;;;;;12.90;99.90;;;;;;5054775;28;20130;-72
2022/06/07 00:31:44;;;;;;;;;;;12.90;99.90;;;;;;5054336;28;19908;-74
2022/06/07 00:34:10;;;;;;;;;;;12.90;99.90;;;;;;5053991;28;20211;-73
2022/06/07 00:36:37;;;;;;;;;;;12.90;99.90;;;;;;5053585;28;19943;-73
2022/06/07 00:39:03;;;;;;;;;;;12.80;99.90;;;;;;5053066;28;19917;-74
2022/06/07 00:41:29;;;;;;;;;;;12.90;99.90;;;;;;5054846;28;20051;-73
2022/06/07 00:44:32;;;;;;;;;;;12.90;99.90;;;;;;5052653;28;20279;-71
2022/06/07 00:47:01;;;;;;;;;;;12.90;99.90;;;;;;4992443;28;20028;-73
2022/06/07 00:49:28;;;;;;;;;;;12.90;99.90;;;;;;4986315;28;19921;-73
2022/06/07 00:51:54;;;;;;;;;;;12.80;99.90;;;;;;4989240;28;19925;-73
2022/06/07 00:54:20;;;;;;;;;;;12.80;99.90;;;;;;4992171;28;19910;-73
2022/06/07 00:56:45;;;;;;;;;;;12.80;99.90;;;;;;4995308;28;20064;-73
2022/06/07 00:59:11;;;;;;;;;;;12.80;99.90;;;;;;4976337;28;20000;-73
2022/06/07 01:01:37;;;;;;;;;;;12.80;99.90;;;;;;4976557;28;20024;-73
2022/06/07 01:04:02;;;;;;;;;;;12.80;99.90;;;;;;4978533;28;19921;-73
2022/06/07 01:11:56;;;;;;;;;;;12.80;99.90;;;;;;4995291;28;19968;-73
2022/06/07 01:14:22;;;;;;;;;;;12.70;99.90;;;;;;4995741;28;19914;-73
2022/06/07 01:16:47;;;;;;;;;;;12.70;99.90;;;;;;4992144;28;20160;-73
2022/06/07 01:19:13;;;;;;;;;;;12.70;99.90;;;;;;5057285;28;19962;-72
2022/06/07 01:21:41;;;;;;;;;;;12.70;99.90;;;;;;5056644;28;19913;-73
2022/06/07 01:24:07;;;;;;;;;;;12.60;99.90;;;;;;5046477;28;19998;-73
2022/06/07 01:26:32;;;;;;;;;;;12.60;99.90;;;;;;5050456;28;19955;-73
2022/06/07 01:28:58;;;;;;;;;;;12.60;99.90;;;;;;5057175;28;19939;-73
2022/06/07 01:31:23;;;;;;;;;;;12.60;99.90;;;;;;5054775;28;19917;-73
2022/06/07 01:33:49;;;;;;;;;;;12.60;99.90;;;;;;5051802;28;19916;-73
2022/06/07 01:36:16;;;;;;;;;;;12.50;99.90;;;;;;5054777;28;19916;-73
2022/06/07 01:38:43;;;;;;;;;;;12.50;99.90;;;;;;5055881;28;20220;-73
2022/06/07 01:44:01;;;;;;;;;;;12.40;99.90;;;;;;5039568;28;20304;-73
2022/06/07 01:46:26;;;;;;;;;;;12.40;99.90;;;;;;5057829;28;19913;-73
2022/06/07 01:48:52;;;;;;;;;;;12.40;99.90;;;;;;5059523;28;19909;-73
2022/06/07 01:51:17;;;;;;;;;;;12.40;99.90;;;;;;5056531;28;19931;-73
2022/06/07 01:53:43;;;;;;;;;;;12.40;99.90;;;;;;5054486;28;20330;-73
2022/06/07 01:56:14;;;;;;;;;;;12.40;99.90;;;;;;5007721;28;20346;-73
2022/06/07 01:58:41;;;;;;;;;;;12.40;99.90;;;;;;5052467;28;19912;-73
2022/06/07 02:01:07;;;;;;;;;;;12.40;99.90;;;;;;5043429;28;19909;-73
2022/06/07 02:03:33;;;;;;;;;;;12.40;99.90;;;;;;5055035;28;19920;-73
2022/06/07 02:06:00;;;;;;;;;;;12.40;99.90;;;;;;5052468;28;19943;-73
2022/06/07 02:08:26;;;;;;;;;;;12.30;99.90;;;;;;5058571;28;19924;-73
2022/06/07 02:10:52;;;;;;;;;;;12.40;99.90;;;;;;5057233;28;19909;-73
2022/06/07 02:13:19;;;;;;;;;;;12.40;99.90;;;;;;5054484;28;20391;-73
2022/06/07 02:15:45;;;;;;;;;;;12.40;99.90;;;;;;5054638;28;19969;-73
2022/06/07 02:18:11;;;;;;;;;;;12.40;99.90;;;;;;5055868;28;19932;-73
2022/06/07 02:20:37;;;;;;;;;;;12.40;99.90;;;;;;5055276;28;19909;-73
2022/06/07 02:23:02;;;;;;;;;;;12.40;99.90;;;;;;5055746;28;20318;-73
2022/06/07 02:25:28;;;;;;;;;;;12.50;99.90;;;;;;5056302;28;19927;-73
2022/06/07 02:27:54;;;;;;;;;;;12.50;99.90;;;;;;5055379;28;19936;-73
2022/06/07 02:30:19;;;;;;;;;;;12.40;99.90;;;;;;5055905;28;19909;-73
2022/06/07 02:32:45;;;;;;;;;;;12.50;99.90;;;;;;5053171;28;20227;-73
2022/06/07 02:35:11;;;;;;;;;;;12.50;99.90;;;;;;5055643;28;19912;-74
2022/06/07 02:37:37;;;;;;;;;;;12.50;99.90;;;;;;5053322;28;20008;-73
2022/06/07 02:40:03;;;;;;;;;;;12.50;99.90;;;;;;5055440;28;19959;-74
2022/06/07 02:42:29;;;;;;;;;;;12.60;99.90;;;;;;5036794;28;20215;-73
2022/06/07 02:44:57;;;;;;;;;;;12.50;99.90;;;;;;5047697;28;19913;-73
2022/06/07 02:47:23;;;;;;;;;;;12.60;99.90;;;;;;5055666;28;19956;-73
2022/06/07 02:49:48;;;;;;;;;;;12.60;99.90;;;;;;5056080;28;19955;-73
2022/06/07 02:52:14;;;;;;;;;;;12.50;99.90;;;;;;5056051;28;19955;-74
2022/06/07 02:54:39;;;;;;;;;;;12.50;99.90;;;;;;5048957;28;19939;-73
2022/06/07 02:57:05;;;;;;;;;;;12.50;99.90;;;;;;5053191;28;19963;-73
2022/06/07 02:59:31;;;;;;;;;;;12.40;99.90;;;;;;5050543;28;20315;-74
2022/06/07 03:01:56;;;;;;;;;;;12.40;99.90;;;;;;5050503;28;19913;-74
2022/06/07 03:04:22;;;;;;;;;;;12.40;99.90;;;;;;5055215;28;19917;-73
2022/06/07 03:06:47;;;;;;;;;;;12.40;99.90;;;;;;5054863;28;19912;-74
2022/06/07 03:09:13;;;;;;;;;;;12.40;99.90;;;;;;5053881;28;19947;-73
2022/06/07 03:11:38;;;;;;;;;;;12.40;99.90;;;;;;5054448;28;19920;-74
2022/06/07 03:14:05;;;;;;;;;;;12.50;99.90;;;;;;5053845;28;19912;-74
2022/06/07 03:16:31;;;;;;;;;;;12.50;99.90;;;;;;5054337;28;19924;-74
2022/06/07 03:18:56;;;;;;;;;;;12.50;99.90;;;;;;5053905;28;19913;-73
2022/06/07 03:21:22;;;;;;;;;;;12.50;99.90;;;;;;5044273;28;19917;-74
2022/06/07 03:23:47;;;;;;;;;;;12.50;99.90;;;;;;5053903;28;19917;-74
2022/06/07 03:26:13;;;;;;;;;;;12.50;99.90;;;;;;5045392;28;19916;-74
2022/06/07 03:28:39;;;;;;;;;;;12.60;99.90;;;;;;5053969;28;19920;-74
2022/06/07 03:31:12;;;;;;;;;;;12.60;99.90;;;;;;5047907;28;19913;-75
2022/06/07 03:33:38;;;;;;;;;;;12.60;99.90;;;;;;5050245;28;20205;-72
2022/06/07 03:36:14;;;;;;;;;;;12.60;99.90;;;;;;5049223;28;19916;-73
2022/06/07 03:38:40;;;;;;;;;;;12.70;99.90;;;;;;5046969;28;19920;-74
2022/06/07 03:41:06;;;;;;;;;;;12.70;99.90;;;;;;5060528;28;19958;-73
2022/06/07 03:43:31;;;;;;;;;;;12.70;99.90;;;;;;5049365;28;20192;-73
2022/06/07 03:46:05;;;;;;;;;;;12.70;99.90;;;;;;5055317;28;19963;-73
2022/06/07 03:48:30;;;;;;;;;;;12.70;99.90;;;;;;5053602;28;19999;-74
2022/06/07 03:50:56;;;;;;;;;;;12.70;99.90;;;;;;5049322;28;19996;-73
2022/06/07 03:53:21;;;;;;;;;;;12.70;99.90;;;;;;5053997;28;20020;-73
2022/06/07 03:55:47;;;;;;;;;;;12.80;99.90;;;;;;5030271;28;21351;-74
2022/06/07 03:58:13;;;;;;;;;;;12.80;99.90;;;;;;5038988;28;19961;-74
2022/06/07 04:00:39;;;;;;;;;;;12.90;99.90;;;;;;5065210;28;20046;-73
2022/06/07 04:03:05;;;;;;;;;;;12.90;99.90;;;;;;5050393;28;20271;-74
2022/06/07 04:05:30;;;;;;;;;;;12.90;99.90;;;;;;5051322;28;19912;-74
2022/06/07 04:08:30;;;;;;;;;;;12.90;99.90;;;;;;5058819;28;19920;-73
2022/06/07 04:10:47;;;;;;;;;;;13.00;99.90;;;;;;5049464;28;19909;-73
2022/06/07 04:13:14;;;;;;;;;;;12.90;99.90;;;;;;5052211;28;20367;-74
2022/06/07 04:15:40;;;;;;;;;;;12.90;99.90;;;;;;5051761;28;20254;-74
2022/06/07 04:18:05;;;;;;;;;;;12.90;99.90;;;;;;5056116;28;19913;-73
2022/06/07 04:20:31;;;;;;;;;;;12.90;99.90;;;;;;5057671;28;19962;-74
2022/06/07 04:22:56;;;;;;;;;;;12.90;99.90;;;;;;5054818;28;20270;-74
2022/06/07 04:25:22;;;;;;;;;;;12.90;99.90;;;;;;5050993;28;19913;-72
2022/06/07 04:27:47;;;;;;;;;;;13.00;99.90;;;;;;5042291;28;19967;-72
2022/06/07 04:30:13;;;;;;;;;;;13.00;99.90;;;;;;5039213;28;19983;-72
2022/06/07 04:32:45;;;;;;;;;;;13.00;99.90;;;;;;5044352;28;20223;-73
2022/06/07 04:35:10;;;;;;;;;;;13.10;99.90;;;;;;5055701;28;19916;-73
2022/06/07 04:37:36;;;;;;;;;;;13.10;99.90;;;;;;5052041;28;19917;-73
2022/06/07 04:40:02;;;;;;;;;;;13.00;99.90;;;;;;5053864;28;19913;-73
2022/06/07 04:42:28;;;;;;;;;;;13.00;99.90;;;;;;5053433;28;20004;-73
2022/06/07 04:44:53;;;;;;;;;;;13.10;99.90;;;;;;5049996;28;19924;-74
2022/06/07 04:47:19;;;;;;;;;;;13.10;99.90;;;;;;5050871;28;19916;-74
2022/06/07 04:49:44;;;;;;;;;;;13.10;99.90;;;;;;5044332;28;19917;-74
2022/06/07 04:52:10;;;;;;;;;;;13.20;99.90;;;;;;5055717;28;20222;-73
2022/06/07 04:54:35;;;;;;;;;;;13.20;99.90;;;;;;5025206;28;20217;-75
2022/06/07 04:57:01;;;;;;;;;;;13.20;99.90;;;;;;5054048;28;19925;-73
2022/06/07 04:59:26;;;;;;;;;;;13.30;99.90;;;;;;5052425;28;20211;-74
2022/06/07 05:01:52;;;;;;;;;;;13.40;99.90;;;;;;5041005;28;19957;-74
2022/06/07 05:04:17;;;;;;;;;;;13.50;99.90;;;;;;5048274;28;20344;-73
2022/06/07 05:06:43;;;;;;;;;;;13.50;99.90;;;;;;5055862;28;20247;-74
2022/06/07 05:09:14;;;;;;;;;;;13.70;99.90;;;;;;5048673;28;20397;-73
2022/06/07 05:11:39;;;;;;;;;;;13.70;99.90;;;;;;5054962;28;19916;-73
2022/06/07 05:14:05;;;;;;;;;;;13.80;99.90;;;;;;5055190;28;20222;-73
2022/06/07 05:16:31;;;;;;;;;;;13.90;99.90;;;;;;4986124;28;20320;-73
2022/06/07 05:18:57;;;;;;;;;;;13.90;99.90;;;;;;4943349;28;19923;-73
2022/06/07 05:21:23;;;;;;;;;;;13.90;99.90;;;;;;4948755;28;19917;-72
2022/06/07 05:23:49;;;;;;;;;;;14.00;99.90;;;;;;4942635;28;21881;-73
2022/06/07 05:26:15;;;;;;;;;;;13.90;99.90;;;;;;4943962;28;19923;-73
2022/06/07 05:28:42;;;;;;;;;;;14.00;99.90;;;;;;4944791;28;19960;-72
2022/06/07 05:31:08;;;;;;;;;;;14.00;99.90;;;;;;4943730;28;19917;-72
2022/06/07 05:33:33;;;;;;;;;;;14.00;99.90;;;;;;4943266;28;19952;-73
2022/06/07 05:35:59;;;;;;;;;;;14.00;99.90;;;;;;4943789;28;19925;-73
2022/06/07 05:38:24;;;;;;;;;;;14.00;99.90;;;;;;4942088;28;20662;-73
2022/06/07 05:40:51;;;;;;;;;;;14.10;99.90;;;;;;4940676;28;19916;-74
2022/06/07 05:43:16;;;;;;;;;;;14.10;99.90;;;;;;4942531;28;19916;-73
2022/06/07 05:45:46;;;;;;;;;;;14.20;99.90;;;;;;4945788;28;20841;-73
2022/06/07 05:48:11;;;;;;;;;;;14.30;99.90;;;;;;4945138;28;19970;-73
2022/06/07 05:50:37;;;;;;;;;;;14.40;99.90;;;;;;4943904;28;19921;-74
2022/06/07 05:53:02;;;;;;;;;;;14.40;99.90;;;;;;4944242;28;20053;-73
2022/06/07 05:55:28;;;;;;;;;;;14.40;99.90;;;;;;4942158;28;19925;-73
2022/06/07 05:57:54;;;;;;;;;;;14.60;99.90;;;;;;4943211;28;19971;-74
2022/06/07 06:00:21;;;;;;;;;;;14.60;99.90;;;;;;4944123;28;24450;-73
2022/06/07 06:02:47;;;;;;;;;;;14.60;99.90;;;;;;4943024;28;20310;-73
2022/06/07 06:05:13;;;;;;;;;;;14.60;99.90;;;;;;4942304;28;20278;-74
2022/06/07 06:10:19;;;;;;;;;;;14.70;99.90;;;;;;4943147;28;19975;-73
2022/06/07 06:10:24;;;;;;;;;;;14.90;99.90;;;;;;4942649;28;20650;-73
2022/06/07 06:12:50;;;;;;;;;;;15.20;99.90;;;;;;4941724;28;20051;-74
2022/06/07 06:15:16;;;;;;;;;;;15.20;99.90;;;;;;4945339;28;19940;-74
2022/06/07 06:17:41;;;;;;;;;;;15.20;99.90;;;;;;5056019;28;19915;-73
2022/06/07 06:20:09;;;;;;;;;;;15.20;99.90;;;;;;5056502;28;19966;-75
2022/06/07 06:22:35;;;;;;;;;;;15.20;99.90;;;;;;5056417;28;19909;-73
2022/06/07 06:25:00;;;;;;;;;;;15.10;99.90;;;;;;5051116;28;19936;-73
2022/06/07 06:27:26;;;;;;;;;;;15.00;99.90;;;;;;5051280;28;19919;-72
2022/06/07 06:29:51;;;;;;;;;;;15.00;99.90;;;;;;5048036;28;19909;-72
2022/06/07 06:32:17;;;;;;;;;;;15.00;99.90;;;;;;5051983;28;19912;-73
2022/06/07 06:34:42;;;;;;;;;;;14.90;99.90;;;;;;5043152;28;20003;-74
2022/06/07 06:37:08;;;;;;;;;;;15.00;99.90;;;;;;5054925;28;19964;-73
2022/06/07 06:39:33;;;;;;;;;;;14.90;99.90;;;;;;5055728;28;20241;-73
2022/06/07 06:41:59;;;;;;;;;;;14.90;99.90;;;;;;5055463;28;20328;-72
2022/06/07 06:44:24;;;;;;;;;;;14.80;99.90;;;;;;5065532;28;20263;-73
2022/06/07 06:46:50;;;;;;;;;;;14.80;99.90;;;;;;5055852;28;19918;-73
2022/06/07 06:49:16;;;;;;;;;;;14.90;99.90;;;;;;5055473;28;19940;-74
2022/06/07 06:51:42;;;;;;;;;;;14.80;99.90;;;;;;5057395;28;19913;-73
2022/06/07 06:54:11;;;;;;;;;;;14.80;99.90;;;;;;5060419;28;19914;-72
2022/06/07 06:56:36;;;;;;;;;;;14.70;99.90;;;;;;5064421;28;19932;-72
2022/06/07 06:59:02;;;;;;;;;;;14.80;99.90;;;;;;5075249;28;19912;-72
2022/06/07 07:01:31;;;;;;;;;;;14.90;99.90;;;;;;5074523;28;20311;-73
2022/06/07 07:03:57;;;;;;;;;;;15.00;99.90;;;;;;5076236;28;19936;-73
2022/06/07 07:06:23;;;;;;;;;;;15.00;99.90;;;;;;5054173;28;20010;-74
2022/06/07 07:08:49;;;;;;;;;;;15.20;99.90;;;;;;5066720;28;20035;-76
2022/06/07 07:11:17;;;;;;;;;;;15.30;99.90;;;;;;5072372;28;19912;-73
2022/06/07 07:13:44;;;;;;;;;;;15.40;99.90;;;;;;5074889;28;19920;-74
2022/06/07 07:16:10;;;;;;;;;;;15.50;99.90;;;;;;5074831;28;19961;-73
2022/06/07 07:18:36;;;;;;;;;;;15.60;99.90;;;;;;5043102;28;19909;-73
2022/06/07 07:21:06;;;;;;;;;;;15.60;99.90;;;;;;5075525;28;20130;-73
2022/06/07 07:23:31;;;;;;;;;;;15.60;99.90;;;;;;5073169;28;19913;-72
2022/06/07 07:26:09;;;;;;;;;;;15.50;99.90;;;;;;5052464;28;19920;-73
2022/06/07 07:28:35;;;;;;;;;;;15.40;99.90;;;;;;5072910;28;20026;-73
2022/06/07 07:31:02;;;;;;;;;;;15.40;99.90;;;;;;5062605;28;19917;-73
2022/06/07 07:33:28;;;;;;;;;;;15.30;99.90;;;;;;5065181;28;19916;-72
2022/06/07 07:35:54;;;;;;;;;;;15.40;99.90;;;;;;5073249;28;19917;-73
2022/06/07 07:38:20;;;;;;;;;;;15.30;99.90;;;;;;5064757;28;19912;-73
2022/06/07 07:40:46;;;;;;;;;;;15.30;99.90;;;;;;5089549;28;20231;-73
2022/06/07 07:43:12;;;;;;;;;;;15.30;99.90;;;;;;5052607;28;19928;-74
2022/06/07 07:45:38;;;;;;;;;;;15.30;99.90;;;;;;5075694;28;19928;-73
2022/06/07 07:48:03;;;;;;;;;;;15.30;99.90;;;;;;5084349;28;19918;-73
2022/06/07 07:50:29;;;;;;;;;;;15.20;99.90;;;;;;5063248;28;19944;-74
2022/06/07 07:52:56;;;;;;;;;;;15.20;99.90;;;;;;5076178;28;20023;-73
2022/06/07 07:55:23;;;;;;;;;;;15.20;99.90;;;;;;5060095;28;20007;-72
2022/06/07 07:57:48;;;;;;;;;;;15.20;99.90;;;;;;5064711;28;20360;-73
2022/06/07 08:00:14;;;;;;;;;;;15.10;99.90;;;;;;5062903;28;19909;-73
2022/06/07 08:02:39;;;;;;;;;;;15.00;99.90;;;;;;5062513;28;19909;-74
2022/06/07 08:05:05;;;;;;;;;;;15.00;99.90;;;;;;5059785;28;19912;-73
2022/06/07 08:07:32;;;;;;;;;;;14.90;99.90;;;;;;5071362;28;19938;-72
2022/06/07 08:09:59;;;;;;;;;;;15.00;99.90;;;;;;5067232;28;19948;-73
2022/06/07 08:12:27;;;;;;;;;;;14.90;99.90;;;;;;5063499;28;19909;-73
2022/06/07 08:14:52;;;;;;;;;;;14.90;99.90;;;;;;5068696;28;19916;-74
2022/06/07 08:17:18;;;;;;;;;;;14.90;99.90;;;;;;5014433;28;19924;-74
2022/06/07 08:19:43;;;;;;;;;;;15.00;99.90;;;;;;5067929;28;19916;-73
2022/06/07 08:22:09;;;;;;;;;;;15.10;99.90;;;;;;5047725;28;19912;-73
2022/06/07 08:24:35;;;;;;;;;;;15.10;99.90;;;;;;5062828;28;20325;-76
2022/06/07 08:27:01;;;;;;;;;;;15.10;99.90;;;;;;5070352;28;19913;-73
2022/06/07 08:29:26;;;;;;;;;;;15.10;99.90;;;;;;5069627;28;20272;-76
2022/06/07 08:31:52;;;;;;;;;;;15.20;99.90;;;;;;5068294;28;20211;-73
2022/06/07 08:39:46;;;;;;;;;;;15.30;99.90;;;;;;5058820;28;19920;-74
2022/06/07 08:42:12;;;;;;;;;;;15.30;99.90;;;;;;5075599;28;19912;-74
2022/06/07 08:44:44;;;;;;;;;;;15.30;99.90;;;;;;5057447;28;20007;-73
2022/06/07 08:47:13;;;;;;;;;;;15.50;99.90;;;;;;5025663;28;19964;-73
2022/06/07 08:49:38;;;;;;;;;;;15.50;99.90;;;;;;4921768;28;20920;-73
2022/06/07 08:52:16;;;;;;;;;;;15.70;99.90;;;;;;4940480;28;20577;-73
2022/06/07 08:54:43;;;;;;;;;;;15.70;99.90;;;;;;4937632;28;20661;-74
2022/06/07 08:57:27;;;;;;;;;;;15.70;99.90;;;;;;4939995;28;19929;-72
2022/06/07 09:00:00;;;;;;;;;;;15.70;99.90;;;;;;4921482;28;19989;-73
2022/06/07 09:02:33;;;;;;;;;;;15.70;99.90;;;;;;4936315;28;19923;-73
2022/06/07 09:04:59;;;;;;;;;;;15.80;99.90;;;;;;4937414;28;19924;-73
2022/06/07 09:07:25;;;;;;;;;;;15.90;99.90;;;;;;4942700;28;20720;-73
2022/06/07 09:12:40;;;;;;;;;;;16.20;99.90;;;;;;4941421;28;19989;-74
2022/06/07 09:15:11;;;;;;;;;;;16.30;99.90;;;;;;4901531;28;20995;-72
2022/06/07 09:17:45;;;;;;;;;;;16.50;99.90;;;;;;4923582;28;19941;-73
2022/06/07 09:20:22;;;;;;;;;;;16.40;99.90;;;;;;4944678;28;20240;-72
2022/06/07 09:23:07;;;;;;;;;;;16.50;99.90;;;;;;4938539;28;19920;-73
2022/06/07 09:25:37;;;;;;;;;;;16.60;99.90;;;;;;4941701;28;20898;-73
2022/06/07 09:28:05;;;;;;;;;;;16.80;99.90;;;;;;4943268;28;19967;-73
2022/06/07 09:30:34;;;;;;;;;;;16.70;99.90;;;;;;4929463;28;19917;-74
2022/06/07 09:33:18;;;;;;;;;;;16.60;99.90;;;;;;4943093;28;20300;-73
2022/06/07 09:35:44;;;;;;;;;;;16.70;99.90;;;;;;4943773;28;19977;-74
2022/06/07 09:38:14;;;;;;;;;;;17.00;99.90;;;;;;4942802;28;20004;-73
2022/06/07 09:40:52;;;;;;;;;;;17.00;99.90;;;;;;4939743;28;19949;-76
2022/06/07 09:43:19;;;;;;;;;;;17.00;99.90;;;;;;4963641;28;19920;-72
2022/06/07 09:45:45;;;;;;;;;;;17.20;99.90;;;;;;5074122;28;19908;-73
2022/06/07 09:48:25;;;;;;;;;;;17.40;99.90;;;;;;5053990;28;20035;-74
2022/06/07 09:50:55;;;;;;;;;;;17.50;99.90;;;;;;5071819;28;19909;-73
2022/06/07 09:53:21;;;;;;;;;;;18.00;99.90;;;;;;5055508;28;19915;-73
2022/06/07 09:55:57;;;;;;;;;;;18.50;99.90;;;;;;5003718;28;19928;-72
2022/06/07 09:58:23;;;;;;;;;;;19.30;99.90;;;;;;4942765;28;19917;-74
2022/06/07 10:00:54;;;;;;;;;;;19.80;99.90;;;;;;4939840;28;20361;-74
2022/06/07 10:03:33;;;;;;;;;;;19.90;99.90;;;;;;4911447;28;20741;-73
2022/06/07 10:06:18;;;;;;;;;;;19.60;99.90;;;;;;4942580;28;21422;-75
2022/06/07 10:08:43;;;;;;;;;;;19.10;99.90;;;;;;4942936;28;20059;-73
2022/06/07 10:11:18;;;;;;;;;;;18.70;99.90;;;;;;4934002;28;19921;-74
2022/06/07 10:13:53;;;;;;;;;;;18.60;99.90;;;;;;4913297;28;20231;-74
2022/06/07 10:16:21;;;;;;;;;;;18.80;99.90;;;;;;4945484;28;20475;-73
2022/06/07 10:18:47;;;;;;;;;;;19.10;99.90;;;;;;4940421;28;19918;-73
2022/06/07 10:21:21;;;;;;;;;;;19.30;99.90;;;;;;4940000;28;19917;-73
2022/06/07 10:24:06;;;;;;;;;;;19.50;99.90;;;;;;4924980;28;19916;-74
2022/06/07 10:26:38;;;;;;;;;;;19.50;99.90;;;;;;4936964;28;20291;-74
2022/06/07 10:29:03;;;;;;;;;;;19.40;99.90;;;;;;4925050;28;19920;-73
2022/06/07 10:31:47;;;;;;;;;;;19.10;99.90;;;;;;4939481;28;21333;-74
2022/06/07 10:34:18;;;;;;;;;;;19.00;99.90;;;;;;4938026;28;20813;-75
2022/06/07 10:36:58;;;;;;;;;;;18.50;99.90;;;;;;4939305;28;20571;-75
2022/06/07 10:39:38;;;;;;;;;;;18.60;99.90;;;;;;4921336;28;19936;-75
2022/06/07 10:42:11;;;;;;;;;;;18.80;99.90;;;;;;4944210;28;20213;-73
2022/06/07 10:44:43;;;;;;;;;;;19.20;99.90;;;;;;4920812;28;19920;-74
2022/06/07 10:47:17;;;;;;;;;;;19.40;99.90;;;;;;4919691;28;19966;-73
2022/06/07 10:49:50;;;;;;;;;;;19.70;99.90;;;;;;4925354;28;21137;-74
2022/06/07 10:52:25;;;;;;;;;;;20.10;99.90;;;;;;5017713;28;19978;-74
2022/06/07 10:55:13;;;;;;;;;;;20.20;99.90;;;;;;5071808;28;20025;-74
2022/06/07 10:58:02;;;;;;;;;;;20.30;99.90;;;;;;5071296;28;19928;-76
2022/06/07 11:00:34;;;;;;;;;;;20.20;99.90;;;;;;5055219;28;19913;-74
2022/06/07 11:03:05;;;;;;;;;;;20.10;99.90;;;;;;5066283;28;19920;-75
2022/06/07 11:11:07;;;;;;;;;;;20.00;99.90;;;;;;5071243;28;19962;-73
2022/06/07 11:13:43;;;;;;;;;;;20.10;99.90;;;;;;5068692;28;20361;-73
2022/06/07 11:16:08;;;;;;;;;;;20.60;99.90;;;;;;5073067;28;19916;-74
2022/06/07 11:18:34;;;;;;;;;;;20.80;99.90;;;;;;5068543;28;20321;-73
2022/06/07 11:21:03;;;;;;;;;;;20.70;99.90;;;;;;5066976;28;19917;-75
2022/06/07 11:23:31;;;;;;;;;;;20.20;99.90;;;;;;5056692;28;20268;-75
2022/06/07 11:26:08;;;;;;;;;;;19.70;99.90;;;;;;5050578;28;19971;-74
2022/06/07 11:28:42;;;;;;;;;;;19.70;99.90;;;;;;5049578;28;19992;-73
2022/06/07 11:31:26;;;;;;;;;;;19.90;99.90;;;;;;5068613;28;19939;-75
2022/06/07 11:33:51;;;;;;;;;;;20.20;99.90;;;;;;5070994;28;19913;-74
2022/06/07 11:36:20;;;;;;;;;;;20.30;99.90;;;;;;5063209;28;19917;-74
2022/06/07 11:38:57;;;;;;;;;;;20.70;99.90;;;;;;5075428;28;19912;-74
2022/06/07 11:41:37;;;;;;;;;;;20.90;99.90;;;;;;5074810;28;19908;-74
2022/06/07 11:44:12;;;;;;;;;;;20.40;99.90;;;;;;5068329;28;19912;-75
2022/06/07 11:46:57;;;;;;;;;;;20.00;99.90;;;;;;5054672;28;20588;-74
2022/06/07 11:49:23;;;;;;;;;;;20.10;99.90;;;;;;5085274;28;19923;-73
2022/06/07 11:52:08;;;;;;;;;;;20.00;99.90;;;;;;5017895;28;21034;-75
2022/06/07 11:54:45;;;;;;;;;;;20.00;99.90;;;;;;5057205;28;20307;-74
2022/06/07 11:57:23;;;;;;;;;;;20.20;99.90;;;;;;5073011;28;19928;-75
2022/06/07 11:59:50;;;;;;;;;;;20.70;99.90;;;;;;5074067;28;19916;-74
2022/06/07 12:02:15;;;;;;;;;;;20.60;99.90;;;;;;5073717;28;19964;-74
2022/06/07 12:04:41;;;;;;;;;;;20.80;99.90;;;;;;5071681;28;19978;-73
2022/06/07 12:07:10;;;;;;;;;;;21.00;99.90;;;;;;5057442;28;20268;-74
2022/06/07 12:09:37;;;;;;;;;;;21.00;99.90;;;;;;4999736;28;19996;-75
2022/06/07 12:12:31;;;;;;;;;;;21.30;99.90;;;;;;4959941;28;19917;-75
2022/06/07 12:15:03;;;;;;;;;;;21.10;99.90;;;;;;4944563;28;20670;-74
2022/06/07 12:17:29;;;;;;;;;;;20.80;99.90;;;;;;4968880;28;19920;-74
2022/06/07 12:19:55;;;;;;;;;;;21.10;99.90;;;;;;5037677;28;19924;-73
2022/06/07 12:22:23;;;;;;;;;;;21.50;99.90;;;;;;5077396;28;20288;-74
2022/06/07 12:24:53;;;;;;;;;;;21.60;99.90;;;;;;5069661;28;19920;-75
2022/06/07 12:27:25;;;;;;;;;;;21.70;99.90;;;;;;5090211;28;19919;-73
2022/06/07 12:29:53;;;;;;;;;;;21.70;99.90;;;;;;5083630;28;19912;-75
2022/06/07 12:32:25;;;;;;;;;;;21.40;99.90;;;;;;5075279;28;19916;-75
2022/06/07 12:35:03;;;;;;;;;;;21.20;99.90;;;;;;5030716;28;24227;-74
2022/06/07 12:37:29;;;;;;;;;;;21.00;99.90;;;;;;5073048;28;20479;-75
2022/06/07 12:39:58;;;;;;;;;;;20.90;99.90;;;;;;5061574;28;19916;-75
2022/06/07 12:42:27;;;;;;;;;;;20.90;99.90;;;;;;5062008;28;19999;-75
2022/06/07 12:44:57;;;;;;;;;;;20.40;99.90;;;;;;5067818;28;19935;-75
2022/06/07 12:47:23;;;;;;;;;;;20.20;99.90;;;;;;5081614;28;19912;-74
2022/06/07 12:49:49;;;;;;;;;;;20.70;99.90;;;;;;5082209;28;20410;-74
2022/06/07 12:52:17;;;;;;;;;;;21.10;99.90;;;;;;5040882;28;20680;-75
2022/06/07 12:54:50;;;;;;;;;;;21.40;99.90;;;;;;5039880;28;19958;-75
2022/06/07 12:57:19;;;;;;;;;;;21.60;99.90;;;;;;5059917;28;19921;-74
2022/06/07 13:00:03;;;;;;;;;;;21.70;99.90;;;;;;5060007;28;20046;-74
2022/06/07 13:02:40;;;;;;;;;;;21.80;99.90;;;;;;5075992;28;19924;-74
2022/06/07 13:05:16;;;;;;;;;;;21.90;99.90;;;;;;5076580;28;19912;-74
2022/06/07 13:07:44;;;;;;;;;;;21.90;99.90;;;;;;5075299;28;19912;-75
2022/06/07 13:10:12;;;;;;;;;;;21.90;99.90;;;;;;5052544;28;19916;-75
2022/06/07 13:12:43;;;;;;;;;;;22.00;99.90;;;;;;5042356;28;20223;-75
2022/06/07 13:15:29;;;;;;;;;;;21.90;99.90;;;;;;5077260;28;19947;-75
2022/06/07 13:18:00;;;;;;;;;;;21.80;99.90;;;;;;5056401;28;19921;-74
2022/06/07 13:20:28;;;;;;;;;;;21.60;99.90;;;;;;5050049;28;19935;-75
2022/06/07 13:23:21;;;;;;;;;;;21.70;99.90;;;;;;5052138;28;19938;-74
2022/06/07 13:25:47;;;;;;;;;;;21.50;99.90;;;;;;5052177;28;19919;-73
2022/06/07 13:28:18;;;;;;;;;;;21.70;99.90;;;;;;5070266;28;19913;-74
2022/06/07 13:30:45;;;;;;;;;;;21.70;99.90;;;;;;5073128;28;20283;-75
2022/06/07 13:33:10;;;;;;;;;;;21.90;99.90;;;;;;5053240;28;20006;-74
2022/06/07 13:35:38;;;;;;;;;;;21.80;99.90;;;;;;5069607;28;20012;-75
2022/06/07 13:38:18;;;;;;;;;;;22.00;99.90;;;;;;5057107;28;19916;-75
2022/06/07 13:40:43;;;;;;;;;;;21.60;99.90;;;;;;5072948;28;19912;-74
2022/06/07 13:43:15;;;;;;;;;;;21.70;99.90;;;;;;5075612;28;20016;-75
2022/06/07 13:45:43;;;;;;;;;;;21.70;99.90;;;;;;4985030;28;20252;-74
2022/06/07 13:48:14;;;;;;;;;;;21.90;99.90;;;;;;4923904;28;20743;-74
2022/06/07 13:54:04;;;;;;;;;;;22.10;99.90;;;;;;4937278;28;23952;-73
2022/06/07 13:56:30;;;;;;;;;;;22.00;99.90;;;;;;4938798;28;19935;-74
2022/06/07 13:58:56;;;;;;;;;;;22.20;99.90;;;;;;4936186;28;20369;-75
2022/06/07 14:01:27;;;;;;;;;;;22.10;99.90;;;;;;4941857;28;19917;-74
2022/06/07 14:03:55;;;;;;;;;;;22.10;99.90;;;;;;4938801;28;19917;-75
2022/06/07 14:06:21;;;;;;;;;;;22.10;99.90;;;;;;4951348;28;20069;-74
2022/06/07 14:08:47;;;;;;;;;;;22.20;99.90;;;;;;4920691;28;20718;-74
2022/06/07 14:11:13;;;;;;;;;;;22.10;99.90;;;;;;4939922;28;19924;-74
2022/06/07 14:13:38;;;;;;;;;;;22.20;99.90;;;;;;4958000;28;19916;-75
2022/06/07 14:16:04;;;;;;;;;;;22.20;99.90;;;;;;4945205;28;19932;-75
2022/06/07 14:18:30;;;;;;;;;;;22.40;99.90;;;;;;4962786;28;20630;-73
2022/06/07 14:20:56;;;;;;;;;;;22.20;99.90;;;;;;4964734;28;19920;-74
2022/06/07 14:23:21;;;;;;;;;;;22.00;99.90;;;;;;4959776;28;19970;-74
2022/06/07 14:25:48;;;;;;;;;;;21.60;99.90;;;;;;4968901;28;20304;-74
2022/06/07 14:28:21;;;;;;;;;;;21.50;99.90;;;;;;4965593;28;19970;-74
2022/06/07 14:30:48;;;;;;;;;;;21.20;99.90;;;;;;4959970;28;21110;-74
2022/06/07 14:33:14;;;;;;;;;;;21.20;99.90;;;;;;4959198;28;23962;-73
2022/06/07 14:35:40;;;;;;;;;;;21.50;99.90;;;;;;4940567;28;20441;-75
2022/06/07 14:38:08;;;;;;;;;;;21.40;99.90;;;;;;4937252;28;19925;-74
2022/06/07 14:40:36;;;;;;;;;;;21.40;99.90;;;;;;4945714;28;19917;-75
2022/06/07 14:43:03;;;;;;;;;;;21.50;99.90;;;;;;4942709;28;19926;-75
2022/06/07 14:45:32;;;;;;;;;;;21.70;99.90;;;;;;4918795;28;20008;-74
2022/06/07 14:47:59;;;;;;;;;;;21.50;99.90;;;;;;4939683;28;19921;-74